createdAt,value
2023-05-14T00:00:27.931Z,48.80
2023-05-14T00:01:00.243Z,49.08
2023-05-14T00:01:35.169Z,48.93
2023-05-14T00:02:07.569Z,48.93
2023-05-14T00:02:39.960Z,49.26
2023-05-14T00:03:15.099Z,48.91
2023-05-14T00:03:47.661Z,49.15
2023-05-14T00:04:20.428Z,49.05
2023-05-14T00:04:56.146Z,48.93
2023-05-14T00:05:28.466Z,48.96
2023-05-14T00:06:00.801Z,48.92
2023-05-14T00:06:33.140Z,49.13
2023-05-14T00:07:08.511Z,49.35
2023-05-14T00:07:40.848Z,49.12
2023-05-14T00:08:13.173Z,49.16
2023-05-14T00:08:48.273Z,49.42
2023-05-14T00:09:20.923Z,49.12
2023-05-14T00:09:53.243Z,49.37
2023-05-14T00:10:29.036Z,49.32
2023-05-14T00:11:03.966Z,49.34
2023-05-14T00:11:36.273Z,49.38
2023-05-14T00:12:11.734Z,48.93
2023-05-14T00:12:44.074Z,48.95
2023-05-14T00:13:16.390Z,49.33
2023-05-14T00:13:51.306Z,49.17
2023-05-14T00:14:23.716Z,49.36
2023-05-14T00:14:56.249Z,49.16
2023-05-14T00:15:32.937Z,48.94
2023-05-14T00:16:06.890Z,48.96
2023-05-14T00:16:39.254Z,49.43
2023-05-14T00:17:14.222Z,48.91
2023-05-14T00:17:46.803Z,48.87
2023-05-14T00:18:19.156Z,48.88
2023-05-14T00:18:54.150Z,48.92
2023-05-14T00:19:26.710Z,49.34
2023-05-14T00:19:59.750Z,48.92
2023-05-14T00:20:34.682Z,49.30
2023-05-14T00:21:07.058Z,49.37
2023-05-14T00:21:39.403Z,49.34
2023-05-14T00:22:14.490Z,49.44
2023-05-14T00:22:46.816Z,49.40
2023-05-14T00:23:19.196Z,49.40
2023-05-14T00:23:54.109Z,49.12
2023-05-14T00:24:26.462Z,49.11
2023-05-14T00:24:58.782Z,49.12
2023-05-14T00:25:31.355Z,49.12
2023-05-14T00:26:08.880Z,49.13
2023-05-14T00:26:41.185Z,49.07
2023-05-14T00:27:13.517Z,49.15
2023-05-14T00:27:48.438Z,49.31
2023-05-14T00:28:21.133Z,49.12
2023-05-14T00:28:54.204Z,49.13
2023-05-14T00:29:29.461Z,49.14
2023-05-14T00:30:01.797Z,49.22
2023-05-14T00:30:35.116Z,48.97
2023-05-14T00:31:10.043Z,49.27
2023-05-14T00:31:42.629Z,49.10
2023-05-14T00:32:14.978Z,49.10
2023-05-14T00:32:50.158Z,49.22
2023-05-14T00:33:22.471Z,49.08
2023-05-14T00:33:54.809Z,48.96
2023-05-14T00:34:29.754Z,49.22
2023-05-14T00:35:03.365Z,49.34
2023-05-14T00:35:36.038Z,48.84
2023-05-14T00:36:11.694Z,49.09
2023-05-14T00:36:44.075Z,49.12
2023-05-14T00:37:16.467Z,49.29
2023-05-14T00:37:51.432Z,48.93
2023-05-14T00:38:24.494Z,49.34
2023-05-14T00:38:56.975Z,48.93
2023-05-14T00:39:31.957Z,48.88
2023-05-14T00:40:06.981Z,49.10
2023-05-14T00:40:39.746Z,49.15
2023-05-14T00:41:17.354Z,48.84
2023-05-14T00:41:49.884Z,49.07
2023-05-14T00:42:22.350Z,49.33
2023-05-14T00:42:57.413Z,49.15
2023-05-14T00:43:29.724Z,49.15
2023-05-14T00:44:02.187Z,48.87
2023-05-14T00:44:38.552Z,48.81
2023-05-14T00:45:11.716Z,49.15
2023-05-14T00:45:44.426Z,49.34
2023-05-14T00:46:19.723Z,48.86
2023-05-14T00:46:53.163Z,49.07
2023-05-14T00:47:25.978Z,48.89
2023-05-14T00:48:01.169Z,49.07
2023-05-14T00:48:34.329Z,49.01
2023-05-14T00:49:06.669Z,48.97
2023-05-14T00:49:42.334Z,48.93
2023-05-14T00:50:15.605Z,49.11
2023-05-14T00:50:49.237Z,48.90
2023-05-14T00:51:24.162Z,48.75
2023-05-14T00:51:59.199Z,49.10
2023-05-14T00:52:32.348Z,48.88
2023-05-14T00:53:10.417Z,49.21
2023-05-14T00:53:42.842Z,49.08
2023-05-14T00:54:15.721Z,49.22
2023-05-14T00:54:51.137Z,49.20
2023-05-14T00:55:23.512Z,49.09
2023-05-14T00:55:55.965Z,49.28
2023-05-14T00:56:33.595Z,49.22
2023-05-14T00:57:06.949Z,48.79
2023-05-14T00:57:39.433Z,49.21
2023-05-14T00:58:15.658Z,48.83
2023-05-14T00:58:48.185Z,49.08
2023-05-14T00:59:20.634Z,48.84
2023-05-14T00:59:55.634Z,49.27
2023-05-14T01:00:28.031Z,49.18
2023-05-14T01:01:00.497Z,48.90
2023-05-14T01:01:35.568Z,49.08
2023-05-14T01:02:07.885Z,48.75
2023-05-14T01:02:40.282Z,48.98
2023-05-14T01:03:15.372Z,49.16
2023-05-14T01:03:48.033Z,49.15
2023-05-14T01:04:20.623Z,48.80
2023-05-14T01:04:56.503Z,49.21
2023-05-14T01:05:31.266Z,48.71
2023-05-14T01:06:10.717Z,49.14
2023-05-14T01:06:53.139Z,49.15
2023-05-14T01:07:31.891Z,49.22
2023-05-14T01:08:08.595Z,49.19
2023-05-14T01:08:52.899Z,48.94
2023-05-14T01:09:29.284Z,48.69
2023-05-14T01:10:04.459Z,48.95
2023-05-14T01:10:43.108Z,48.86
2023-05-14T01:11:21.583Z,48.67
2023-05-14T01:12:03.480Z,48.67
2023-05-14T01:12:42.538Z,48.64
2023-05-14T01:13:21.261Z,48.67
2023-05-14T01:14:02.024Z,49.03
2023-05-14T01:14:43.448Z,48.79
2023-05-14T01:15:18.973Z,48.79
2023-05-14T01:15:51.985Z,48.69
2023-05-14T01:16:29.615Z,48.55
2023-05-14T01:17:05.189Z,48.98
2023-05-14T01:17:41.878Z,48.99
2023-05-14T01:18:18.744Z,48.97
2023-05-14T01:18:51.848Z,48.55
2023-05-14T01:19:40.235Z,48.95
2023-05-14T01:20:15.733Z,48.65
2023-05-14T01:20:51.202Z,48.63
2023-05-14T01:21:37.535Z,48.76
2023-05-14T01:22:12.762Z,48.77
2023-05-14T01:22:45.152Z,48.71
2023-05-14T01:23:17.524Z,49.00
2023-05-14T01:23:49.839Z,48.81
2023-05-14T01:24:24.818Z,48.52
2023-05-14T01:24:57.161Z,48.64
2023-05-14T01:25:31.114Z,48.72
2023-05-14T01:26:06.146Z,48.67
2023-05-14T01:26:38.496Z,48.96
2023-05-14T01:27:14.303Z,48.50
2023-05-14T01:27:53.292Z,48.51
2023-05-14T01:28:29.545Z,48.97
2023-05-14T01:29:05.116Z,48.52
2023-05-14T01:29:41.936Z,49.02
2023-05-14T01:30:19.982Z,49.01
2023-05-14T01:30:58.330Z,48.88
2023-05-14T01:31:34.820Z,48.87
2023-05-14T01:32:08.535Z,48.96
2023-05-14T01:32:41.443Z,48.93
2023-05-14T01:33:18.357Z,48.67
2023-05-14T01:33:50.753Z,48.81
2023-05-14T01:34:24.925Z,48.64
2023-05-14T01:35:00.411Z,48.72
2023-05-14T01:35:33.358Z,48.54
2023-05-14T01:36:06.435Z,48.58
2023-05-14T01:36:41.776Z,48.55
2023-05-14T01:37:16.976Z,48.46
2023-05-14T01:37:49.939Z,48.73
2023-05-14T01:38:22.822Z,48.86
2023-05-14T01:38:58.649Z,48.62
2023-05-14T01:39:32.676Z,48.96
2023-05-14T01:40:06.823Z,48.95
2023-05-14T01:40:42.486Z,48.80
2023-05-14T01:41:15.152Z,48.52
2023-05-14T01:41:48.034Z,48.70
2023-05-14T01:42:22.994Z,48.67
2023-05-14T01:42:55.629Z,48.47
2023-05-14T01:43:28.118Z,48.62
2023-05-14T01:44:03.128Z,48.64
2023-05-14T01:44:35.877Z,48.85
2023-05-14T01:45:09.542Z,48.90
2023-05-14T01:45:44.815Z,48.66
2023-05-14T01:46:19.049Z,48.71
2023-05-14T01:46:51.564Z,48.55
2023-05-14T01:47:26.518Z,48.59
2023-05-14T01:47:58.945Z,48.51
2023-05-14T01:48:31.366Z,48.54
2023-05-14T01:49:06.399Z,48.71
2023-05-14T01:49:38.726Z,48.80
2023-05-14T01:50:11.645Z,48.96
2023-05-14T01:50:47.168Z,48.93
2023-05-14T01:51:19.518Z,48.67
2023-05-14T01:51:55.094Z,48.54
2023-05-14T01:52:27.789Z,48.52
2023-05-14T01:53:02.849Z,48.73
2023-05-14T01:53:35.183Z,48.71
2023-05-14T01:54:07.529Z,48.48
2023-05-14T01:54:42.435Z,48.97
2023-05-14T01:55:15.992Z,49.00
2023-05-14T01:55:48.373Z,48.78
2023-05-14T01:56:21.950Z,48.95
2023-05-14T01:56:56.881Z,49.03
2023-05-14T01:57:29.264Z,48.69
2023-05-14T01:58:01.589Z,48.79
2023-05-14T01:58:33.955Z,48.80
2023-05-14T01:59:08.901Z,48.86
2023-05-14T01:59:41.830Z,48.60
2023-05-14T02:00:14.816Z,48.69
2023-05-14T02:00:47.211Z,48.57
2023-05-14T02:01:22.149Z,49.00
2023-05-14T02:01:54.636Z,48.43
2023-05-14T02:02:27.197Z,48.75
2023-05-14T02:02:59.748Z,48.47
2023-05-14T02:03:34.809Z,48.74
2023-05-14T02:04:07.165Z,48.82
2023-05-14T02:04:39.541Z,48.56
2023-05-14T02:05:14.818Z,48.57
2023-05-14T02:05:47.161Z,48.56
2023-05-14T02:06:19.524Z,48.88
2023-05-14T02:06:57.163Z,48.91
2023-05-14T02:07:30.328Z,48.45
2023-05-14T02:08:02.666Z,48.92
2023-05-14T02:08:37.598Z,48.70
2023-05-14T02:09:10.045Z,48.53
2023-05-14T02:09:42.483Z,48.55
2023-05-14T02:10:17.473Z,48.83
2023-05-14T02:10:54.672Z,48.71
2023-05-14T02:11:29.293Z,48.53
2023-05-14T02:12:04.221Z,48.53
2023-05-14T02:12:36.580Z,48.94
2023-05-14T02:13:09.822Z,48.42
2023-05-14T02:13:42.242Z,48.68
2023-05-14T02:14:17.652Z,49.00
2023-05-14T02:14:50.163Z,48.94
2023-05-14T02:15:22.505Z,48.92
2023-05-14T02:15:57.497Z,48.73
2023-05-14T02:16:29.893Z,48.52
2023-05-14T02:17:02.263Z,49.00
2023-05-14T02:17:37.404Z,48.94
2023-05-14T02:18:09.816Z,48.49
2023-05-14T02:18:42.274Z,48.57
2023-05-14T02:19:17.249Z,48.86
2023-05-14T02:19:49.630Z,48.82
2023-05-14T02:20:22.144Z,48.97
2023-05-14T02:20:58.030Z,48.68
2023-05-14T02:21:30.318Z,48.89
2023-05-14T02:22:05.870Z,48.55
2023-05-14T02:22:42.442Z,48.75
2023-05-14T02:23:14.770Z,48.59
2023-05-14T02:23:49.680Z,48.70
2023-05-14T02:24:25.650Z,48.80
2023-05-14T02:24:57.996Z,48.58
2023-05-14T02:25:30.324Z,48.57
2023-05-14T02:26:05.225Z,48.51
2023-05-14T02:26:37.541Z,48.76
2023-05-14T02:27:09.874Z,48.71
2023-05-14T02:27:45.071Z,48.70
2023-05-14T02:28:17.795Z,48.70
2023-05-14T02:28:50.190Z,48.67
2023-05-14T02:29:25.150Z,48.45
2023-05-14T02:30:00.943Z,48.41
2023-05-14T02:30:33.362Z,48.71
2023-05-14T02:31:08.466Z,48.62
2023-05-14T02:31:41.122Z,48.80
2023-05-14T02:32:13.543Z,48.76
2023-05-14T02:32:48.608Z,48.69
2023-05-14T02:33:21.066Z,48.59
2023-05-14T02:33:53.460Z,48.65
2023-05-14T02:34:28.434Z,48.74
2023-05-14T02:35:01.349Z,48.59
2023-05-14T02:35:36.584Z,48.43
2023-05-14T02:36:09.183Z,48.68
2023-05-14T02:36:41.537Z,48.62
2023-05-14T02:37:19.050Z,48.47
2023-05-14T02:37:51.387Z,48.37
2023-05-14T02:38:23.956Z,48.58
2023-05-14T02:38:58.949Z,48.89
2023-05-14T02:39:31.318Z,48.79
2023-05-14T02:40:04.629Z,48.66
2023-05-14T02:40:40.158Z,48.81
2023-05-14T02:41:12.494Z,48.50
2023-05-14T02:41:44.870Z,48.61
2023-05-14T02:42:19.778Z,48.36
2023-05-14T02:42:52.208Z,48.76
2023-05-14T02:43:25.350Z,48.77
2023-05-14T02:44:00.459Z,48.31
2023-05-14T02:44:32.857Z,48.76
2023-05-14T02:45:07.483Z,48.51
2023-05-14T02:45:42.490Z,48.31
2023-05-14T02:46:14.907Z,48.33
2023-05-14T02:46:47.349Z,48.36
2023-05-14T02:47:22.861Z,48.49
2023-05-14T02:47:55.234Z,48.50
2023-05-14T02:48:27.640Z,48.25
2023-05-14T02:49:03.245Z,48.35
2023-05-14T02:49:35.595Z,48.63
2023-05-14T02:50:09.578Z,48.71
2023-05-14T02:50:44.553Z,48.38
2023-05-14T02:51:16.961Z,48.74
2023-05-14T02:51:49.264Z,48.32
2023-05-14T02:52:26.845Z,48.69
2023-05-14T02:52:59.194Z,48.64
2023-05-14T02:53:34.109Z,48.68
2023-05-14T02:54:06.461Z,48.46
2023-05-14T02:54:38.909Z,48.27
2023-05-14T02:55:14.632Z,48.30
2023-05-14T02:55:47.079Z,48.45
2023-05-14T02:56:19.418Z,48.33
2023-05-14T02:56:54.433Z,48.15
2023-05-14T02:57:26.765Z,48.55
2023-05-14T02:57:59.079Z,48.57
2023-05-14T02:58:34.113Z,48.62
2023-05-14T02:59:06.639Z,48.14
2023-05-14T02:59:39.564Z,48.71
2023-05-14T03:00:16.119Z,48.48
2023-05-14T03:00:48.986Z,48.59
2023-05-14T03:01:22.074Z,48.41
2023-05-14T03:01:58.097Z,48.17
2023-05-14T03:02:31.305Z,48.66
2023-05-14T03:03:04.327Z,48.19
2023-05-14T03:03:39.856Z,48.47
2023-05-14T03:04:12.661Z,48.16
2023-05-14T03:04:45.370Z,48.62
2023-05-14T03:05:17.753Z,48.52
2023-05-14T03:05:52.812Z,48.50
2023-05-14T03:06:25.123Z,48.48
2023-05-14T03:06:57.463Z,48.50
2023-05-14T03:07:34.959Z,48.77
2023-05-14T03:08:07.313Z,48.36
2023-05-14T03:08:39.666Z,48.45
2023-05-14T03:09:12.079Z,48.47
2023-05-14T03:09:47.022Z,48.29
2023-05-14T03:10:19.520Z,48.28
2023-05-14T03:10:51.924Z,48.71
2023-05-14T03:11:27.085Z,48.32
2023-05-14T03:11:59.416Z,48.79
2023-05-14T03:12:31.916Z,48.69
2023-05-14T03:13:07.028Z,48.31
2023-05-14T03:13:39.383Z,48.42
2023-05-14T03:14:11.736Z,48.41
2023-05-14T03:14:47.220Z,48.56
2023-05-14T03:15:19.704Z,48.34
2023-05-14T03:15:55.199Z,48.44
2023-05-14T03:16:30.525Z,48.74
2023-05-14T03:17:04.175Z,48.32
2023-05-14T03:17:36.631Z,48.72
2023-05-14T03:18:11.580Z,48.69
2023-05-14T03:18:44.886Z,48.76
2023-05-14T03:19:17.281Z,48.51
2023-05-14T03:19:52.308Z,48.71
2023-05-14T03:20:26.283Z,48.51
2023-05-14T03:20:58.739Z,48.79
2023-05-14T03:21:33.661Z,48.79
2023-05-14T03:22:06.718Z,48.33
2023-05-14T03:22:41.625Z,48.66
2023-05-14T03:23:16.615Z,48.31
2023-05-14T03:23:48.937Z,48.77
2023-05-14T03:24:24.166Z,48.28
2023-05-14T03:24:59.159Z,48.36
2023-05-14T03:25:31.522Z,48.48
2023-05-14T03:26:05.145Z,48.34
2023-05-14T03:26:40.339Z,48.71
2023-05-14T03:27:13.097Z,48.57
2023-05-14T03:27:45.569Z,48.67
2023-05-14T03:28:20.565Z,48.50
2023-05-14T03:28:52.897Z,48.22
2023-05-14T03:29:25.229Z,48.35
2023-05-14T03:30:00.226Z,48.57
2023-05-14T03:30:32.616Z,48.46
2023-05-14T03:31:05.178Z,48.33
2023-05-14T03:31:40.167Z,48.52
2023-05-14T03:32:12.590Z,48.32
2023-05-14T03:32:45.953Z,48.26
2023-05-14T03:33:21.460Z,48.74
2023-05-14T03:33:53.854Z,48.34
2023-05-14T03:34:26.250Z,48.52
2023-05-14T03:34:58.572Z,48.73
2023-05-14T03:35:33.476Z,48.68
2023-05-14T03:36:09.059Z,48.31
2023-05-14T03:36:41.385Z,48.38
2023-05-14T03:37:13.770Z,48.74
2023-05-14T03:37:53.085Z,48.32
2023-05-14T03:38:26.444Z,48.55
2023-05-14T03:38:58.754Z,48.56
2023-05-14T03:39:33.678Z,48.74
2023-05-14T03:40:07.935Z,48.34
2023-05-14T03:40:42.046Z,48.26
2023-05-14T03:41:19.377Z,48.44
2023-05-14T03:41:51.714Z,48.45
2023-05-14T03:42:27.309Z,48.39
2023-05-14T03:42:59.684Z,48.65
2023-05-14T03:43:35.350Z,48.46
2023-05-14T03:44:07.747Z,48.78
2023-05-14T03:44:40.206Z,48.74
2023-05-14T03:45:16.053Z,48.38
2023-05-14T03:45:52.673Z,48.73
2023-05-14T03:46:25.388Z,48.81
2023-05-14T03:47:00.392Z,48.31
2023-05-14T03:47:33.348Z,48.45
2023-05-14T03:48:07.248Z,48.30
2023-05-14T03:48:42.825Z,48.32
2023-05-14T03:49:15.339Z,48.35
2023-05-14T03:49:47.704Z,48.49
2023-05-14T03:50:25.771Z,48.46
2023-05-14T03:50:58.318Z,48.59
2023-05-14T03:51:31.960Z,48.55
2023-05-14T03:52:07.508Z,48.75
2023-05-14T03:52:40.421Z,48.56
2023-05-14T03:53:17.098Z,48.55
2023-05-14T03:53:54.045Z,48.43
2023-05-14T03:54:26.508Z,48.74
2023-05-14T03:54:59.038Z,48.62
2023-05-14T03:55:33.974Z,48.46
2023-05-14T03:56:06.583Z,48.41
2023-05-14T03:56:38.898Z,48.69
2023-05-14T03:57:13.819Z,48.77
2023-05-14T03:57:46.603Z,48.71
2023-05-14T03:58:18.984Z,48.34
2023-05-14T03:58:53.909Z,48.31
2023-05-14T03:59:26.264Z,48.74
2023-05-14T03:59:59.490Z,48.83
2023-05-14T04:00:34.634Z,48.37
2023-05-14T04:01:06.970Z,48.35
2023-05-14T04:01:39.322Z,48.42
2023-05-14T04:02:14.325Z,48.29
2023-05-14T04:02:46.757Z,48.64
2023-05-14T04:03:19.322Z,48.66
2023-05-14T04:03:52.518Z,48.30
2023-05-14T04:04:27.688Z,48.74
2023-05-14T04:05:00.553Z,48.19
2023-05-14T04:05:32.974Z,48.67
2023-05-14T04:06:08.525Z,48.72
2023-05-14T04:06:41.001Z,48.65
2023-05-14T04:07:13.427Z,48.27
2023-05-14T04:07:48.785Z,48.63
2023-05-14T04:08:24.012Z,48.68
2023-05-14T04:08:56.476Z,48.52
2023-05-14T04:09:28.841Z,48.21
2023-05-14T04:10:05.929Z,48.50
2023-05-14T04:10:40.755Z,48.16
2023-05-14T04:11:13.099Z,48.26
2023-05-14T04:11:48.036Z,48.21
2023-05-14T04:12:20.601Z,48.21
2023-05-14T04:12:53.028Z,48.47
2023-05-14T04:13:28.117Z,48.23
2023-05-14T04:14:00.481Z,48.13
2023-05-14T04:14:32.879Z,48.36
2023-05-14T04:15:08.946Z,48.18
2023-05-14T04:15:41.381Z,48.44
2023-05-14T04:16:13.840Z,48.47
2023-05-14T04:16:48.892Z,48.09
2023-05-14T04:17:21.376Z,48.50
2023-05-14T04:17:54.226Z,48.36
2023-05-14T04:18:29.571Z,48.49
2023-05-14T04:19:04.039Z,48.33
2023-05-14T04:19:39.521Z,48.16
2023-05-14T04:20:12.219Z,48.52
2023-05-14T04:20:45.310Z,48.55
2023-05-14T04:21:17.622Z,48.37
2023-05-14T04:21:52.549Z,48.03
2023-05-14T04:22:24.999Z,48.26
2023-05-14T04:22:57.461Z,48.36
2023-05-14T04:23:35.196Z,48.22
2023-05-14T04:24:08.381Z,48.18
2023-05-14T04:24:40.879Z,48.55
2023-05-14T04:25:15.801Z,48.07
2023-05-14T04:25:48.133Z,48.38
2023-05-14T04:26:21.772Z,48.07
2023-05-14T04:26:54.133Z,48.07
2023-05-14T04:27:30.010Z,48.11
2023-05-14T04:28:02.397Z,48.52
2023-05-14T04:28:34.754Z,48.26
2023-05-14T04:29:09.654Z,48.12
2023-05-14T04:29:41.964Z,48.52
2023-05-14T04:30:14.588Z,48.29
2023-05-14T04:30:49.514Z,48.31
2023-05-14T04:31:22.420Z,48.28
2023-05-14T04:31:54.753Z,48.11
2023-05-14T04:32:30.447Z,48.56
2023-05-14T04:33:02.965Z,48.11
2023-05-14T04:33:35.344Z,48.52
2023-05-14T04:34:10.268Z,48.07
2023-05-14T04:34:42.670Z,48.48
2023-05-14T04:35:15.043Z,48.24
2023-05-14T04:35:50.157Z,48.46
2023-05-14T04:36:22.471Z,48.30
2023-05-14T04:36:54.800Z,48.35
2023-05-14T04:37:27.124Z,48.48
2023-05-14T04:38:02.064Z,48.16
2023-05-14T04:38:37.030Z,48.32
2023-05-14T04:39:09.626Z,48.26
2023-05-14T04:39:42.048Z,48.34
2023-05-14T04:40:17.111Z,48.07
2023-05-14T04:40:49.489Z,48.43
2023-05-14T04:41:21.795Z,48.04
2023-05-14T04:41:56.699Z,48.48
2023-05-14T04:42:28.998Z,48.56
2023-05-14T04:43:01.292Z,48.13
2023-05-14T04:43:33.619Z,48.54
2023-05-14T04:44:09.248Z,48.33
2023-05-14T04:44:41.614Z,48.31
2023-05-14T04:45:14.871Z,48.50
2023-05-14T04:45:49.838Z,48.66
2023-05-14T04:46:22.508Z,48.59
2023-05-14T04:46:54.845Z,48.33
2023-05-14T04:47:29.831Z,48.37
2023-05-14T04:48:02.403Z,48.12
2023-05-14T04:48:35.084Z,48.31
2023-05-14T04:49:10.122Z,48.33
2023-05-14T04:49:42.899Z,48.32
2023-05-14T04:50:15.501Z,48.29
2023-05-14T04:50:48.125Z,48.31
2023-05-14T04:51:23.067Z,48.31
2023-05-14T04:51:55.429Z,48.51
2023-05-14T04:52:27.914Z,48.13
2023-05-14T04:53:03.372Z,48.38
2023-05-14T04:53:38.308Z,48.12
2023-05-14T04:54:10.640Z,48.57
2023-05-14T04:54:45.606Z,48.12
2023-05-14T04:55:18.031Z,48.14
2023-05-14T04:55:50.450Z,48.43
2023-05-14T04:56:25.363Z,48.40
2023-05-14T04:56:57.692Z,48.57
2023-05-14T04:57:30.043Z,48.59
2023-05-14T04:58:05.444Z,48.24
2023-05-14T04:58:37.772Z,48.14
2023-05-14T04:59:10.074Z,48.58
2023-05-14T04:59:42.456Z,48.09
2023-05-14T05:00:18.201Z,48.43
2023-05-14T05:00:50.668Z,48.15
2023-05-14T05:01:23.681Z,48.24
2023-05-14T05:01:58.762Z,48.52
2023-05-14T05:02:31.202Z,48.47
2023-05-14T05:03:03.730Z,48.24
2023-05-14T05:03:38.761Z,48.22
2023-05-14T05:04:11.261Z,48.54
2023-05-14T05:04:47.359Z,48.04
2023-05-14T05:05:20.031Z,48.28
2023-05-14T05:05:52.386Z,48.50
2023-05-14T05:06:27.368Z,48.26
2023-05-14T05:06:59.725Z,48.40
2023-05-14T05:07:32.077Z,48.33
2023-05-14T05:08:07.528Z,48.16
2023-05-14T05:08:42.529Z,48.38
2023-05-14T05:09:14.843Z,48.67
2023-05-14T05:09:49.964Z,48.50
2023-05-14T05:10:22.605Z,48.54
2023-05-14T05:10:55.029Z,48.38
2023-05-14T05:11:29.988Z,48.28
2023-05-14T05:12:02.361Z,48.70
2023-05-14T05:12:35.584Z,48.39
2023-05-14T05:13:10.610Z,48.44
2023-05-14T05:13:42.910Z,48.27
2023-05-14T05:14:15.406Z,48.25
2023-05-14T05:14:50.364Z,48.56
2023-05-14T05:15:25.286Z,48.64
2023-05-14T05:15:58.893Z,48.48
2023-05-14T05:16:33.926Z,48.58
2023-05-14T05:17:06.304Z,48.56
2023-05-14T05:17:38.856Z,48.60
2023-05-14T05:18:13.838Z,48.34
2023-05-14T05:18:46.209Z,48.70
2023-05-14T05:19:19.708Z,48.33
2023-05-14T05:19:57.332Z,48.73
2023-05-14T05:20:29.753Z,48.71
2023-05-14T05:21:02.112Z,48.67
2023-05-14T05:21:39.420Z,48.37
2023-05-14T05:22:11.882Z,48.66
2023-05-14T05:22:44.239Z,48.62
2023-05-14T05:23:19.201Z,48.40
2023-05-14T05:23:54.170Z,48.69
2023-05-14T05:24:26.502Z,48.25
2023-05-14T05:24:59.972Z,48.57
2023-05-14T05:25:34.909Z,48.50
2023-05-14T05:26:07.259Z,48.71
2023-05-14T05:26:39.682Z,48.67
2023-05-14T05:27:12.034Z,48.55
2023-05-14T05:27:47.204Z,48.70
2023-05-14T05:28:19.530Z,48.38
2023-05-14T05:28:51.845Z,48.74
2023-05-14T05:29:27.469Z,48.45
2023-05-14T05:30:01.542Z,48.52
2023-05-14T05:30:33.931Z,48.37
2023-05-14T05:31:08.996Z,48.64
2023-05-14T05:31:42.194Z,48.47
2023-05-14T05:32:14.588Z,48.48
2023-05-14T05:32:49.642Z,48.55
2023-05-14T05:33:22.072Z,48.20
2023-05-14T05:33:54.402Z,48.26
2023-05-14T05:34:29.573Z,48.07
2023-05-14T05:35:01.989Z,48.42
2023-05-14T05:35:36.944Z,48.24
2023-05-14T05:36:09.736Z,47.95
2023-05-14T05:36:42.142Z,48.25
2023-05-14T05:37:17.090Z,48.04
2023-05-14T05:37:49.454Z,48.03
2023-05-14T05:38:21.826Z,47.95
2023-05-14T05:38:59.334Z,48.00
2023-05-14T05:39:35.206Z,48.14
2023-05-14T05:40:10.483Z,48.21
2023-05-14T05:40:42.822Z,48.40
2023-05-14T05:41:17.729Z,48.14
2023-05-14T05:41:50.042Z,48.34
2023-05-14T05:42:22.819Z,48.32
2023-05-14T05:42:57.799Z,48.33
2023-05-14T05:43:30.130Z,48.33
2023-05-14T05:44:02.486Z,48.00
2023-05-14T05:44:37.408Z,47.83
2023-05-14T05:45:10.863Z,48.04
2023-05-14T05:45:43.167Z,48.05
2023-05-14T05:46:18.157Z,48.12
2023-05-14T05:46:51.263Z,48.09
2023-05-14T05:47:23.727Z,48.27
2023-05-14T05:47:58.702Z,47.77
2023-05-14T05:48:31.048Z,47.90
2023-05-14T05:49:03.369Z,47.91
2023-05-14T05:49:38.932Z,48.11
2023-05-14T05:50:11.752Z,48.14
2023-05-14T05:50:45.018Z,48.16
2023-05-14T05:51:19.940Z,48.12
2023-05-14T05:51:52.237Z,47.88
2023-05-14T05:52:27.209Z,47.84
2023-05-14T05:52:59.601Z,48.05
2023-05-14T05:53:31.910Z,47.70
2023-05-14T05:54:09.487Z,47.63
2023-05-14T05:54:41.781Z,47.91
2023-05-14T05:55:14.108Z,48.18
2023-05-14T05:55:49.129Z,47.68
2023-05-14T05:56:22.264Z,47.77
2023-05-14T05:56:54.631Z,48.09
2023-05-14T05:57:30.038Z,47.68
2023-05-14T05:58:02.433Z,48.14
2023-05-14T05:58:34.740Z,47.75
2023-05-14T05:59:10.180Z,47.97
2023-05-14T05:59:42.490Z,47.66
2023-05-14T06:00:15.743Z,47.70
2023-05-14T06:00:50.617Z,47.73
2023-05-14T06:01:22.998Z,47.74
2023-05-14T06:01:55.612Z,47.97
2023-05-14T06:02:30.800Z,47.63
2023-05-14T06:03:03.380Z,47.97
2023-05-14T06:03:35.836Z,48.12
2023-05-14T06:04:10.834Z,47.68
2023-05-14T06:04:43.189Z,47.85
2023-05-14T06:05:15.607Z,48.05
2023-05-14T06:05:50.928Z,47.98
2023-05-14T06:06:23.302Z,47.77
2023-05-14T06:06:55.617Z,47.73
2023-05-14T06:07:31.141Z,47.75
2023-05-14T06:08:03.606Z,47.88
2023-05-14T06:08:36.051Z,48.16
2023-05-14T06:09:13.594Z,47.97
2023-05-14T06:09:45.897Z,47.67
2023-05-14T06:10:18.464Z,47.70
2023-05-14T06:10:53.385Z,47.93
2023-05-14T06:11:25.925Z,47.88
2023-05-14T06:11:58.230Z,47.79
2023-05-14T06:12:33.136Z,47.68
2023-05-14T06:13:05.518Z,48.00
2023-05-14T06:13:37.861Z,47.60
2023-05-14T06:14:12.771Z,47.80
2023-05-14T06:14:45.082Z,47.91
2023-05-14T06:15:17.485Z,47.92
2023-05-14T06:15:52.442Z,47.99
2023-05-14T06:16:25.037Z,47.76
2023-05-14T06:16:57.601Z,47.85
2023-05-14T06:17:32.658Z,47.80
2023-05-14T06:18:05.455Z,48.11
2023-05-14T06:18:37.881Z,47.92
2023-05-14T06:19:13.101Z,48.09
2023-05-14T06:19:45.546Z,47.87
2023-05-14T06:20:17.942Z,47.87
2023-05-14T06:20:52.833Z,48.11
2023-05-14T06:21:25.272Z,47.66
2023-05-14T06:21:57.601Z,47.95
2023-05-14T06:22:30.010Z,47.68
2023-05-14T06:23:04.915Z,48.04
2023-05-14T06:23:37.495Z,47.63
2023-05-14T06:24:15.097Z,48.02
2023-05-14T06:24:48.441Z,47.77
2023-05-14T06:25:20.787Z,47.88
2023-05-14T06:25:55.813Z,48.09
2023-05-14T06:26:28.117Z,48.04
2023-05-14T06:27:00.517Z,47.88
2023-05-14T06:27:35.486Z,47.68
2023-05-14T06:28:07.826Z,47.66
2023-05-14T06:28:40.168Z,47.85
2023-05-14T06:29:15.212Z,47.96
2023-05-14T06:29:47.702Z,48.02
2023-05-14T06:30:20.202Z,48.04
2023-05-14T06:30:56.112Z,48.00
2023-05-14T06:31:28.471Z,47.63
2023-05-14T06:32:02.416Z,47.85
2023-05-14T06:32:34.839Z,47.51
2023-05-14T06:33:09.813Z,47.60
2023-05-14T06:33:42.193Z,48.09
2023-05-14T06:34:14.632Z,47.67
2023-05-14T06:34:49.586Z,47.76
2023-05-14T06:35:21.953Z,47.91
2023-05-14T06:35:54.259Z,47.83
2023-05-14T06:36:29.151Z,47.71
2023-05-14T06:37:03.766Z,48.14
2023-05-14T06:37:36.110Z,47.76
2023-05-14T06:38:11.015Z,47.73
2023-05-14T06:38:43.358Z,48.16
2023-05-14T06:39:18.264Z,47.90
2023-05-14T06:39:54.398Z,47.84
2023-05-14T06:40:27.755Z,47.68
2023-05-14T06:41:00.159Z,47.90
2023-05-14T06:41:35.088Z,47.72
2023-05-14T06:42:07.696Z,48.04
2023-05-14T06:42:40.005Z,48.07
2023-05-14T06:43:12.335Z,48.19
2023-05-14T06:43:47.240Z,48.13
2023-05-14T06:44:19.918Z,47.77
2023-05-14T06:44:52.262Z,48.15
2023-05-14T06:45:24.558Z,47.77
2023-05-14T06:45:59.471Z,47.85
2023-05-14T06:46:31.791Z,47.92
2023-05-14T06:47:04.350Z,48.12
2023-05-14T06:47:39.334Z,47.80
2023-05-14T06:48:11.754Z,47.59
2023-05-14T06:48:44.146Z,47.71
2023-05-14T06:49:19.062Z,47.90
2023-05-14T06:49:51.382Z,47.69
2023-05-14T06:50:26.275Z,47.64
2023-05-14T06:50:58.612Z,47.70
2023-05-14T06:51:30.963Z,47.86
2023-05-14T06:52:06.635Z,47.88
2023-05-14T06:52:39.173Z,47.97
2023-05-14T06:53:14.122Z,47.86
2023-05-14T06:53:47.037Z,47.91
2023-05-14T06:54:21.964Z,47.89
2023-05-14T06:54:56.859Z,48.00
2023-05-14T06:55:29.196Z,48.07
2023-05-14T06:56:01.521Z,48.04
2023-05-14T06:56:37.782Z,48.02
2023-05-14T06:57:10.123Z,48.04
2023-05-14T06:57:42.493Z,47.62
2023-05-14T06:58:17.419Z,47.87
2023-05-14T06:58:49.820Z,47.71
2023-05-14T06:59:22.233Z,47.87
2023-05-14T06:59:57.697Z,47.93
2023-05-14T07:00:31.079Z,48.01
2023-05-14T07:01:03.462Z,47.73
2023-05-14T07:01:38.503Z,47.70
2023-05-14T07:02:11.423Z,47.84
2023-05-14T07:02:43.758Z,47.78
2023-05-14T07:03:18.715Z,47.42
2023-05-14T07:03:51.081Z,47.44
2023-05-14T07:04:23.513Z,47.75
2023-05-14T07:04:58.652Z,47.90
2023-05-14T07:05:31.117Z,47.45
2023-05-14T07:06:03.481Z,47.43
2023-05-14T07:06:38.439Z,47.57
2023-05-14T07:07:13.767Z,47.90
2023-05-14T07:07:48.702Z,47.72
2023-05-14T07:08:21.004Z,47.63
2023-05-14T07:08:56.145Z,47.52
2023-05-14T07:09:31.057Z,47.60
2023-05-14T07:10:03.821Z,47.59
2023-05-14T07:10:39.290Z,47.51
2023-05-14T07:11:11.591Z,47.32
2023-05-14T07:11:43.900Z,47.61
2023-05-14T07:12:18.852Z,47.35
2023-05-14T07:12:51.183Z,47.27
2023-05-14T07:13:24.597Z,47.71
2023-05-14T07:14:00.200Z,47.32
2023-05-14T07:14:32.521Z,47.39
2023-05-14T07:15:06.108Z,47.78
2023-05-14T07:15:41.022Z,47.58